Terminal Aerodrome Forecast
Issued by NWS Des Moines, IA

Home | Current Version | Previous Version | Text Only | Print | Product List | Glossary On
Versions: 1 2 3 4 5 6 7 8 9 10 11 12 13 14 15 16 17 18 19 20 21 22 23 24 25 26 27 28 29 30 31 32 33 34 35 36 37 38 39 40 41
000
FTUS43 KDMX 070117 AAB
TAFALO
TAF AMD
KALO 070117Z 0701/0724 19012KT P6SM BKN150
     FM070300 22012KT P6SM SCT008 OVC120
     FM070800 27016KT P6SM BKN200
     FM071600 27017G24KT P6SM SCT040 SCT200
     FM072300 30017G26KT 5SM -SHSN BKN030=

USA.gov is the U.S. government's official web portal to all federal, state and local government web resources and services.